createdAt,value
2022-12-05T00:00:42.966Z,1012.97
2022-12-05T00:01:43.085Z,1012.97
2022-12-05T00:02:42.948Z,1012.96
2022-12-05T00:03:43.025Z,1012.92
2022-12-05T00:04:43.020Z,1012.92
2022-12-05T00:05:42.878Z,1012.95
2022-12-05T00:06:42.877Z,1012.98
2022-12-05T00:07:42.983Z,1012.92
2022-12-05T00:08:42.848Z,1012.97
2022-12-05T00:09:42.839Z,1012.91
2022-12-05T00:10:42.867Z,1012.92
2022-12-05T00:11:42.982Z,1012.95
2022-12-05T00:12:42.812Z,1012.89
2022-12-05T00:13:42.781Z,1012.85
2022-12-05T00:14:42.789Z,1012.91
2022-12-05T00:15:42.759Z,1012.90
2022-12-05T00:16:42.828Z,1012.97
2022-12-05T00:17:42.736Z,1012.93
2022-12-05T00:18:42.717Z,1012.93
2022-12-05T00:19:42.699Z,1012.98
2022-12-05T00:20:42.697Z,1012.98
2022-12-05T00:21:42.677Z,1012.97
2022-12-05T00:22:42.677Z,1012.99
2022-12-05T00:23:42.647Z,1012.96
2022-12-05T00:24:42.647Z,1012.97
2022-12-05T00:25:42.658Z,1012.94
2022-12-05T00:26:42.628Z,1012.99
2022-12-05T00:27:42.608Z,1013.00
2022-12-05T00:28:42.606Z,1012.98
2022-12-05T00:29:42.570Z,1012.96
2022-12-05T00:30:42.594Z,1012.98
2022-12-05T00:31:42.609Z,1012.98
2022-12-05T00:32:42.607Z,1013.03
2022-12-05T00:33:42.517Z,1013.02
2022-12-05T00:34:42.538Z,1012.96
2022-12-05T00:35:42.497Z,1013.01
2022-12-05T00:36:42.488Z,1012.94
2022-12-05T00:37:42.467Z,1013.04
2022-12-05T00:38:42.465Z,1012.93
2022-12-05T00:39:42.445Z,1013.03
2022-12-05T00:40:42.458Z,1013.03
2022-12-05T00:41:42.418Z,1013.01
2022-12-05T00:42:42.409Z,1012.98
2022-12-05T00:43:42.389Z,1013.05
2022-12-05T00:44:42.398Z,1013.00
2022-12-05T00:45:42.437Z,1012.99
2022-12-05T00:46:42.374Z,1013.09
2022-12-05T00:47:42.349Z,1013.06
2022-12-05T00:48:42.330Z,1013.05
2022-12-05T00:49:42.307Z,1013.04
2022-12-05T00:50:42.308Z,1012.99
2022-12-05T00:51:42.286Z,1013.03
2022-12-05T00:52:42.277Z,1013.04
2022-12-05T00:53:42.249Z,1012.98
2022-12-05T00:54:42.251Z,1013.02
2022-12-05T00:55:42.230Z,1012.94
2022-12-05T00:56:42.233Z,1012.98
2022-12-05T00:57:42.219Z,1013.00
2022-12-05T00:58:42.211Z,1012.97
2022-12-05T00:59:42.182Z,1012.99
2022-12-05T01:00:42.177Z,1012.97
2022-12-05T01:01:42.200Z,1012.95
2022-12-05T01:02:42.223Z,1012.96
2022-12-05T01:03:42.127Z,1012.95
2022-12-05T01:04:42.118Z,1012.91
2022-12-05T01:05:42.096Z,1012.92
2022-12-05T01:06:42.099Z,1012.91
2022-12-05T01:07:42.126Z,1012.92
2022-12-05T01:08:42.076Z,1012.95
2022-12-05T01:09:42.061Z,1012.85
2022-12-05T01:10:42.029Z,1012.94
2022-12-05T01:11:42.026Z,1012.98
2022-12-05T01:12:42.006Z,1012.95
2022-12-05T01:13:41.999Z,1012.97
2022-12-05T01:14:41.978Z,1012.92
2022-12-05T01:15:41.978Z,1012.93
2022-12-05T01:16:42.013Z,1012.92
2022-12-05T01:17:41.947Z,1012.95
2022-12-05T01:18:41.939Z,1012.94
2022-12-05T01:19:41.929Z,1012.89
2022-12-05T01:20:41.900Z,1012.90
2022-12-05T01:21:41.897Z,1012.91
2022-12-05T01:22:41.867Z,1012.91
2022-12-05T01:23:41.867Z,1012.88
2022-12-05T01:24:41.846Z,1012.86
2022-12-05T01:25:41.846Z,1012.87
2022-12-05T01:26:41.816Z,1012.86
2022-12-05T01:27:41.819Z,1012.86
2022-12-05T01:28:41.870Z,1012.80
2022-12-05T01:29:41.797Z,1012.82
2022-12-05T01:30:41.788Z,1012.87
2022-12-05T01:31:41.847Z,1012.88
2022-12-05T01:32:41.747Z,1012.90
2022-12-05T01:33:41.737Z,1012.85
2022-12-05T01:34:41.718Z,1012.87
2022-12-05T01:35:41.718Z,1012.83
2022-12-05T01:36:41.698Z,1012.85
2022-12-05T01:37:41.696Z,1012.87
2022-12-05T01:38:41.656Z,1012.86
2022-12-05T01:39:41.656Z,1012.80
2022-12-05T01:40:41.637Z,1012.88
2022-12-05T01:41:41.626Z,1012.88
2022-12-05T01:42:41.606Z,1012.89
2022-12-05T01:43:41.645Z,1012.90
2022-12-05T01:44:41.585Z,1012.92
2022-12-05T01:45:41.641Z,1012.88
2022-12-05T01:46:41.558Z,1012.92
2022-12-05T01:47:41.557Z,1012.91
2022-12-05T01:48:41.537Z,1012.91
2022-12-05T01:49:41.537Z,1012.83
2022-12-05T01:50:41.507Z,1012.89
2022-12-05T01:51:41.508Z,1012.85
2022-12-05T01:52:41.518Z,1012.87
2022-12-05T01:53:41.467Z,1012.88
2022-12-05T01:54:41.465Z,1012.84
2022-12-05T01:55:41.445Z,1012.89
2022-12-05T01:56:41.415Z,1012.85
2022-12-05T01:57:41.415Z,1012.85
2022-12-05T01:58:41.395Z,1012.83
2022-12-05T01:59:41.386Z,1012.83
2022-12-05T02:00:41.385Z,1012.83
2022-12-05T02:01:41.451Z,1012.88
2022-12-05T02:02:41.411Z,1012.87
2022-12-05T02:03:41.357Z,1012.88
2022-12-05T02:04:41.317Z,1012.89
2022-12-05T02:05:41.327Z,1012.85
2022-12-05T02:06:41.309Z,1012.86
2022-12-05T02:07:41.400Z,1012.81
2022-12-05T02:08:41.269Z,1012.85
2022-12-05T02:09:41.255Z,1012.85
2022-12-05T02:10:41.236Z,1012.82
2022-12-05T02:11:41.233Z,1012.85
2022-12-05T02:12:41.215Z,1012.85
2022-12-05T02:13:41.222Z,1012.76
2022-12-05T02:14:41.188Z,1012.82
2022-12-05T02:15:41.186Z,1012.80
2022-12-05T02:16:41.300Z,1012.83
2022-12-05T02:17:41.167Z,1012.85
2022-12-05T02:18:41.148Z,1012.88
2022-12-05T02:19:41.136Z,1012.81
2022-12-05T02:20:41.106Z,1012.84
2022-12-05T02:21:41.107Z,1012.80
2022-12-05T02:22:41.098Z,1012.88
2022-12-05T02:23:41.076Z,1012.84
2022-12-05T02:24:41.057Z,1012.80
2022-12-05T02:25:41.059Z,1012.79
2022-12-05T02:26:41.026Z,1012.80
2022-12-05T02:27:41.027Z,1012.76
2022-12-05T02:28:51.655Z,1012.79
2022-12-05T02:29:41.022Z,1012.79
2022-12-05T02:30:40.991Z,1012.77
2022-12-05T02:31:41.079Z,1012.81
2022-12-05T02:32:40.961Z,1012.80
2022-12-05T02:33:40.962Z,1012.80
2022-12-05T02:34:40.941Z,1012.76
2022-12-05T02:35:40.936Z,1012.77
2022-12-05T02:36:40.920Z,1012.79
2022-12-05T02:37:40.900Z,1012.84
2022-12-05T02:38:40.869Z,1012.81
2022-12-05T02:39:40.874Z,1012.79
2022-12-05T02:40:40.863Z,1012.78
2022-12-05T02:41:40.853Z,1012.77
2022-12-05T02:42:40.822Z,1012.81
2022-12-05T02:43:40.843Z,1012.82
2022-12-05T02:44:40.819Z,1012.80
2022-12-05T02:45:40.852Z,1012.77
2022-12-05T02:46:40.790Z,1012.77
2022-12-05T02:47:40.763Z,1012.84
2022-12-05T02:48:40.739Z,1012.79
2022-12-05T02:49:40.753Z,1012.81
2022-12-05T02:50:40.727Z,1012.77
2022-12-05T02:51:40.720Z,1012.80
2022-12-05T02:52:40.691Z,1012.82
2022-12-05T02:53:40.682Z,1012.77
2022-12-05T02:54:40.660Z,1012.74
2022-12-05T02:55:40.671Z,1012.69
2022-12-05T02:56:40.641Z,1012.74
2022-12-05T02:57:40.659Z,1012.76
2022-12-05T02:58:40.622Z,1012.75
2022-12-05T02:59:40.622Z,1012.74
2022-12-05T03:00:40.629Z,1012.70
2022-12-05T03:01:40.622Z,1012.68
2022-12-05T03:02:40.570Z,1012.72
2022-12-05T03:03:40.578Z,1012.68
2022-12-05T03:04:40.573Z,1012.62
2022-12-05T03:05:40.542Z,1012.70
2022-12-05T03:06:40.506Z,1012.63
2022-12-05T03:07:40.555Z,1012.62
2022-12-05T03:08:40.478Z,1012.60
2022-12-05T03:09:40.488Z,1012.55
2022-12-05T03:10:40.450Z,1012.62
2022-12-05T03:11:40.462Z,1012.57
2022-12-05T03:12:40.429Z,1012.62
2022-12-05T03:13:40.421Z,1012.56
2022-12-05T03:14:40.401Z,1012.59
2022-12-05T03:15:40.408Z,1012.53
2022-12-05T03:16:40.435Z,1012.62
2022-12-05T03:17:40.367Z,1012.60
2022-12-05T03:18:40.347Z,1012.54
2022-12-05T03:19:40.360Z,1012.58
2022-12-05T03:20:40.330Z,1012.61
2022-12-05T03:21:40.341Z,1012.55
2022-12-05T03:22:40.310Z,1012.54
2022-12-05T03:23:40.290Z,1012.58
2022-12-05T03:24:40.279Z,1012.55
2022-12-05T03:25:40.271Z,1012.53
2022-12-05T03:26:40.251Z,1012.56
2022-12-05T03:27:40.259Z,1012.57
2022-12-05T03:28:40.220Z,1012.55
2022-12-05T03:29:40.217Z,1012.53
2022-12-05T03:30:40.255Z,1012.56
2022-12-05T03:31:40.188Z,1012.56
2022-12-05T03:32:40.167Z,1012.61
2022-12-05T03:33:40.168Z,1012.54
2022-12-05T03:34:40.146Z,1012.60
2022-12-05T03:35:40.139Z,1012.61
2022-12-05T03:36:40.129Z,1012.61
2022-12-05T03:37:40.111Z,1012.65
2022-12-05T03:38:40.091Z,1012.67
2022-12-05T03:39:40.099Z,1012.65
2022-12-05T03:40:40.071Z,1012.65
2022-12-05T03:41:40.110Z,1012.72
2022-12-05T03:42:40.059Z,1012.64
2022-12-05T03:43:40.037Z,1012.61
2022-12-05T03:44:40.010Z,1012.62
2022-12-05T03:45:40.062Z,1012.67
2022-12-05T03:46:40.119Z,1012.65
2022-12-05T03:47:39.979Z,1012.60
2022-12-05T03:48:39.962Z,1012.63
2022-12-05T03:49:39.969Z,1012.62
2022-12-05T03:50:39.927Z,1012.64
2022-12-05T03:51:39.951Z,1012.66
2022-12-05T03:53:10.946Z,1012.67
2022-12-05T03:53:40.907Z,1012.68
2022-12-05T03:54:39.921Z,1012.65
2022-12-05T03:55:39.879Z,1012.59
2022-12-05T03:56:39.857Z,1012.58
2022-12-05T03:57:39.854Z,1012.54
2022-12-05T03:58:39.833Z,1012.55
2022-12-05T03:59:39.841Z,1012.55
2022-12-05T04:00:39.812Z,1012.55
2022-12-05T04:01:39.863Z,1012.57
2022-12-05T04:02:39.794Z,1012.57
2022-12-05T04:03:40.108Z,1012.53
2022-12-05T04:04:39.759Z,1012.56
2022-12-05T04:05:39.747Z,1012.54
2022-12-05T04:06:39.762Z,1012.54
2022-12-05T04:07:39.792Z,1012.55
2022-12-05T04:08:39.710Z,1012.56
2022-12-05T04:09:40.181Z,1012.62
2022-12-05T04:10:39.680Z,1012.58
2022-12-05T04:11:39.771Z,1012.60
2022-12-05T04:12:39.639Z,1012.52
2022-12-05T04:13:39.650Z,1012.57
2022-12-05T04:14:39.619Z,1012.58
2022-12-05T04:15:39.654Z,1012.60
2022-12-05T04:16:39.606Z,1012.59
2022-12-05T04:17:39.589Z,1012.56
2022-12-05T04:18:39.557Z,1012.57
2022-12-05T04:19:39.560Z,1012.57
2022-12-05T04:20:39.538Z,1012.62
2022-12-05T04:21:39.656Z,1012.54
2022-12-05T04:22:39.509Z,1012.51
2022-12-05T04:23:42.385Z,1012.55
2022-12-05T04:24:40.490Z,1012.57
2022-12-05T04:25:39.476Z,1012.52
2022-12-05T04:26:39.470Z,1012.54
2022-12-05T04:27:39.457Z,1012.57
2022-12-05T04:28:39.427Z,1012.56
2022-12-05T04:29:39.427Z,1012.53
2022-12-05T04:30:39.490Z,1012.58
2022-12-05T04:31:39.482Z,1012.54
2022-12-05T04:32:39.397Z,1012.56
2022-12-05T04:33:39.389Z,1012.53
2022-12-05T04:34:39.357Z,1012.53
2022-12-05T04:35:39.358Z,1012.51
2022-12-05T04:36:39.327Z,1012.51
2022-12-05T04:37:39.331Z,1012.52
2022-12-05T04:38:39.325Z,1012.55
2022-12-05T04:39:39.305Z,1012.54
2022-12-05T04:40:39.282Z,1012.52
2022-12-05T04:41:39.276Z,1012.55
2022-12-05T04:42:39.266Z,1012.54
2022-12-05T04:43:39.247Z,1012.49
2022-12-05T04:44:39.239Z,1012.51
2022-12-05T04:45:39.216Z,1012.52
2022-12-05T04:46:39.228Z,1012.52
2022-12-05T04:47:39.198Z,1012.55
2022-12-05T04:48:39.183Z,1012.55
2022-12-05T04:49:39.188Z,1012.54
2022-12-05T04:50:39.188Z,1012.55
2022-12-05T04:51:39.148Z,1012.50
2022-12-05T04:52:39.117Z,1012.54
2022-12-05T04:53:39.117Z,1012.51
2022-12-05T04:54:39.099Z,1012.53
2022-12-05T04:55:39.088Z,1012.56
2022-12-05T04:56:39.076Z,1012.52
2022-12-05T04:57:39.058Z,1012.57
2022-12-05T04:58:39.036Z,1012.54
2022-12-05T04:59:39.037Z,1012.60
2022-12-05T05:00:39.005Z,1012.57
2022-12-05T05:01:39.108Z,1012.56
2022-12-05T05:02:39.060Z,1012.58
2022-12-05T05:03:38.991Z,1012.59
2022-12-05T05:04:39.018Z,1012.54
2022-12-05T05:05:38.961Z,1012.57
2022-12-05T05:06:38.937Z,1012.53
2022-12-05T05:07:39.011Z,1012.54
2022-12-05T05:08:38.917Z,1012.56
2022-12-05T05:09:38.916Z,1012.55
2022-12-05T05:10:38.876Z,1012.55
2022-12-05T05:11:38.881Z,1012.55
2022-12-05T05:12:38.866Z,1012.53
2022-12-05T05:13:38.846Z,1012.57
2022-12-05T05:14:38.841Z,1012.56
2022-12-05T05:15:38.940Z,1012.59
2022-12-05T05:16:38.796Z,1012.49
2022-12-05T05:17:38.798Z,1012.55
2022-12-05T05:18:38.767Z,1012.55
2022-12-05T05:19:38.786Z,1012.56
2022-12-05T05:20:38.768Z,1012.52
2022-12-05T05:21:38.748Z,1012.50
2022-12-05T05:22:38.730Z,1012.55
2022-12-05T05:23:38.716Z,1012.50
2022-12-05T05:24:38.729Z,1012.50
2022-12-05T05:25:38.718Z,1012.54
2022-12-05T05:26:38.686Z,1012.57
2022-12-05T05:27:38.655Z,1012.59
2022-12-05T05:28:38.648Z,1012.58
2022-12-05T05:29:38.636Z,1012.58
2022-12-05T05:30:38.628Z,1012.62
2022-12-05T05:31:38.668Z,1012.62
2022-12-05T05:32:38.594Z,1012.52
2022-12-05T05:33:38.595Z,1012.56
2022-12-05T05:34:38.615Z,1012.58
2022-12-05T05:35:38.576Z,1012.53
2022-12-05T05:36:38.562Z,1012.61
2022-12-05T05:37:38.580Z,1012.61
2022-12-05T05:38:38.535Z,1012.54
2022-12-05T05:39:39.324Z,1012.60
2022-12-05T05:40:38.542Z,1012.60
2022-12-05T05:41:38.477Z,1012.55
2022-12-05T05:42:38.476Z,1012.61
2022-12-05T05:43:38.445Z,1012.61
2022-12-05T05:44:38.444Z,1012.53
2022-12-05T05:45:38.414Z,1012.62
2022-12-05T05:46:38.511Z,1012.62
2022-12-05T05:47:38.385Z,1012.60
2022-12-05T05:48:38.385Z,1012.55
2022-12-05T05:49:38.361Z,1012.63
2022-12-05T05:50:38.365Z,1012.65
2022-12-05T05:51:38.376Z,1012.59
2022-12-05T05:52:38.347Z,1012.55
2022-12-05T05:53:38.324Z,1012.59
2022-12-05T05:54:38.316Z,1012.53
2022-12-05T05:55:38.296Z,1012.59
2022-12-05T05:56:38.286Z,1012.64
2022-12-05T05:57:38.286Z,1012.63
2022-12-05T05:58:38.266Z,1012.66
2022-12-05T05:59:38.225Z,1012.62
2022-12-05T06:00:38.234Z,1012.63
2022-12-05T06:01:38.206Z,1012.65
2022-12-05T06:02:38.318Z,1012.59
2022-12-05T06:03:38.251Z,1012.65
2022-12-05T06:04:38.182Z,1012.69
2022-12-05T06:05:38.163Z,1012.67
2022-12-05T06:06:38.171Z,1012.68
2022-12-05T06:07:38.172Z,1012.66
2022-12-05T06:08:38.143Z,1012.68
2022-12-05T06:09:38.109Z,1012.73
2022-12-05T06:10:38.104Z,1012.72
2022-12-05T06:11:38.076Z,1012.71
2022-12-05T06:12:38.086Z,1012.68
2022-12-05T06:13:38.085Z,1012.64
2022-12-05T06:14:38.055Z,1012.69
2022-12-05T06:15:38.035Z,1012.68
2022-12-05T06:16:38.113Z,1012.69
2022-12-05T06:17:38.003Z,1012.65
2022-12-05T06:18:38.026Z,1012.70
2022-12-05T06:19:37.984Z,1012.62
2022-12-05T06:20:37.972Z,1012.66
2022-12-05T06:21:37.953Z,1012.60
2022-12-05T06:22:37.944Z,1012.67
2022-12-05T06:23:37.944Z,1012.66
2022-12-05T06:24:37.967Z,1012.63
2022-12-05T06:25:37.906Z,1012.64
2022-12-05T06:26:37.926Z,1012.64
2022-12-05T06:27:37.884Z,1012.61
2022-12-05T06:28:37.873Z,1012.66
2022-12-05T06:29:37.848Z,1012.64
2022-12-05T06:30:37.854Z,1012.69
2022-12-05T06:31:37.866Z,1012.70
2022-12-05T06:32:37.830Z,1012.74
2022-12-05T06:33:37.797Z,1012.70
2022-12-05T06:34:37.806Z,1012.70
2022-12-05T06:35:37.786Z,1012.72
2022-12-05T06:36:37.809Z,1012.72
2022-12-05T06:37:37.756Z,1012.75
2022-12-05T06:38:41.788Z,1012.72
2022-12-05T06:39:37.714Z,1012.82
2022-12-05T06:40:37.705Z,1012.80
2022-12-05T06:41:37.716Z,1012.82
2022-12-05T06:42:37.684Z,1012.77
2022-12-05T06:43:37.663Z,1012.77
2022-12-05T06:44:37.655Z,1012.80
2022-12-05T06:45:37.671Z,1012.79
2022-12-05T06:46:37.635Z,1012.79
2022-12-05T06:47:37.635Z,1012.86
2022-12-05T06:48:37.617Z,1012.86
2022-12-05T06:49:38.184Z,1012.84
2022-12-05T06:50:37.596Z,1012.87
2022-12-05T06:51:37.703Z,1012.88
2022-12-05T06:52:37.567Z,1012.87
2022-12-05T06:53:37.556Z,1012.90
2022-12-05T06:54:37.544Z,1012.88
2022-12-05T06:55:37.514Z,1012.90
2022-12-05T06:56:37.513Z,1012.86
2022-12-05T06:57:37.487Z,1012.90
2022-12-05T06:58:37.496Z,1012.86
2022-12-05T06:59:37.475Z,1012.90
2022-12-05T07:00:37.494Z,1012.87
2022-12-05T07:01:37.524Z,1012.90
2022-12-05T07:02:37.485Z,1012.88
2022-12-05T07:03:37.416Z,1012.86
2022-12-05T07:04:37.415Z,1012.91
2022-12-05T07:05:37.389Z,1012.83
2022-12-05T07:06:37.384Z,1012.89
2022-12-05T07:07:37.405Z,1012.84
2022-12-05T07:08:37.359Z,1012.94
2022-12-05T07:09:37.346Z,1012.91
2022-12-05T07:10:37.325Z,1012.93
2022-12-05T07:11:37.312Z,1012.98
2022-12-05T07:12:37.305Z,1012.99
2022-12-05T07:13:37.274Z,1012.92
2022-12-05T07:14:47.587Z,1012.93
2022-12-05T07:15:38.253Z,1012.93
2022-12-05T07:16:37.309Z,1012.92
2022-12-05T07:17:37.236Z,1012.96
2022-12-05T07:18:37.227Z,1013.01
2022-12-05T07:19:37.233Z,1013.00
2022-12-05T07:21:10.321Z,1013.01
2022-12-05T07:21:38.180Z,1013.05
2022-12-05T07:22:37.286Z,1013.05
2022-12-05T07:23:37.146Z,1013.01
2022-12-05T07:24:37.148Z,1013.03
2022-12-05T07:25:37.135Z,1013.05
2022-12-05T07:26:37.124Z,1013.07
2022-12-05T07:27:37.095Z,1013.05
2022-12-05T07:28:37.085Z,1013.12
2022-12-05T07:29:37.063Z,1013.13
2022-12-05T07:30:37.153Z,1013.12
2022-12-05T07:31:37.118Z,1013.12
2022-12-05T07:32:37.062Z,1013.12
2022-12-05T07:33:37.016Z,1013.05
2022-12-05T07:34:37.015Z,1013.06
2022-12-05T07:35:37.064Z,1013.09
2022-12-05T07:36:36.984Z,1013.05
2022-12-05T07:37:38.544Z,1013.03
2022-12-05T07:38:36.993Z,1012.97
2022-12-05T07:39:36.945Z,1012.99
2022-12-05T07:40:36.943Z,1013.04
2022-12-05T07:41:36.926Z,1013.01
2022-12-05T07:42:36.924Z,1012.99
2022-12-05T07:43:36.892Z,1013.02
2022-12-05T07:44:36.905Z,1013.01
2022-12-05T07:45:36.910Z,1013.06
2022-12-05T07:46:36.864Z,1013.04
2022-12-05T07:47:36.861Z,1013.04
2022-12-05T07:48:36.874Z,1013.05
2022-12-05T07:49:36.816Z,1013.05
2022-12-05T07:50:36.805Z,1012.99
2022-12-05T07:51:36.785Z,1013.04
2022-12-05T07:52:36.784Z,1012.96
2022-12-05T07:53:36.774Z,1013.03
2022-12-05T07:54:36.757Z,1012.98
2022-12-05T07:55:36.734Z,1013.02
2022-12-05T07:56:36.724Z,1012.92
2022-12-05T07:57:36.710Z,1013.04
2022-12-05T07:58:36.751Z,1012.96
2022-12-05T07:59:36.685Z,1012.99
2022-12-05T08:00:36.687Z,1013.08
2022-12-05T08:01:36.700Z,1012.98
2022-12-05T08:02:40.664Z,1013.05
2022-12-05T08:03:36.635Z,1013.07
2022-12-05T08:04:36.645Z,1013.09
2022-12-05T08:05:36.656Z,1013.09
2022-12-05T08:06:36.625Z,1013.09
2022-12-05T08:07:36.681Z,1013.07
2022-12-05T08:08:36.579Z,1013.14
2022-12-05T08:09:36.563Z,1013.12
2022-12-05T08:10:36.545Z,1013.08
2022-12-05T08:11:36.524Z,1013.06
2022-12-05T08:12:36.523Z,1013.14
2022-12-05T08:13:36.504Z,1013.08
2022-12-05T08:14:36.513Z,1013.14
2022-12-05T08:15:36.484Z,1013.16
2022-12-05T08:16:36.540Z,1013.19
2022-12-05T08:17:36.456Z,1013.09
2022-12-05T08:18:36.454Z,1013.17
2022-12-05T08:19:36.445Z,1013.14
2022-12-05T08:20:36.425Z,1013.15
2022-12-05T08:21:36.414Z,1013.20
2022-12-05T08:22:36.404Z,1013.16
2022-12-05T08:23:36.374Z,1013.19
2022-12-05T08:24:36.384Z,1013.18
2022-12-05T08:25:36.355Z,1013.19
2022-12-05T08:26:36.341Z,1013.16
2022-12-05T08:27:36.313Z,1013.17
2022-12-05T08:28:43.330Z,1013.13
2022-12-05T08:29:36.314Z,1013.17
2022-12-05T08:30:36.364Z,1013.20
2022-12-05T08:31:36.269Z,1013.24
2022-12-05T08:32:36.274Z,1013.16
2022-12-05T08:33:36.255Z,1013.20
2022-12-05T08:34:36.258Z,1013.19
2022-12-05T08:35:36.229Z,1013.24
2022-12-05T08:36:36.221Z,1013.19
2022-12-05T08:37:36.194Z,1013.23
2022-12-05T08:38:36.231Z,1013.26
2022-12-05T08:39:38.670Z,1013.25
2022-12-05T08:40:36.173Z,1013.26
2022-12-05T08:41:36.145Z,1013.24
2022-12-05T08:42:36.151Z,1013.28
2022-12-05T08:43:36.113Z,1013.21
2022-12-05T08:44:36.121Z,1013.16
2022-12-05T08:45:36.106Z,1013.21
2022-12-05T08:46:36.201Z,1013.20
2022-12-05T08:47:36.075Z,1013.17
2022-12-05T08:48:36.059Z,1013.18
2022-12-05T08:49:36.039Z,1013.14
2022-12-05T08:50:36.042Z,1013.10
2022-12-05T08:51:36.013Z,1013.16
2022-12-05T08:52:36.013Z,1013.13
2022-12-05T08:53:40.919Z,1013.15
2022-12-05T08:54:36.981Z,1013.16
2022-12-05T08:55:35.962Z,1013.13
2022-12-05T08:56:35.963Z,1013.11
2022-12-05T08:57:35.954Z,1013.14
2022-12-05T08:58:35.931Z,1013.11
2022-12-05T08:59:35.911Z,1013.14
2022-12-05T09:00:35.902Z,1013.12
2022-12-05T09:01:35.927Z,1013.07
2022-12-05T09:02:35.920Z,1013.13
2022-12-05T09:03:35.860Z,1013.09
2022-12-05T09:04:35.888Z,1013.10
2022-12-05T09:05:35.841Z,1013.14
2022-12-05T09:06:35.843Z,1013.11
2022-12-05T09:07:35.895Z,1013.12
2022-12-05T09:08:35.829Z,1013.07
2022-12-05T09:09:35.793Z,1013.05
2022-12-05T09:10:35.787Z,1013.09
2022-12-05T09:11:35.760Z,1013.07
2022-12-05T09:12:35.759Z,1013.07
2022-12-05T09:13:35.742Z,1013.12
2022-12-05T09:14:35.731Z,1013.07
2022-12-05T09:15:35.730Z,1013.12
2022-12-05T09:16:38.535Z,1013.11
2022-12-05T09:17:35.674Z,1013.06
2022-12-05T09:18:35.670Z,1013.11
2022-12-05T09:19:35.657Z,1013.05
2022-12-05T09:20:35.638Z,1013.06
2022-12-05T09:21:35.627Z,1013.09
2022-12-05T09:22:35.648Z,1013.07
2022-12-05T09:23:35.625Z,1013.09
2022-12-05T09:24:35.589Z,1013.00
2022-12-05T09:25:35.589Z,1013.10
2022-12-05T09:26:35.573Z,1013.07
2022-12-05T09:27:35.559Z,1013.05
2022-12-05T09:28:35.558Z,1013.02
2022-12-05T09:29:35.519Z,1013.03
2022-12-05T09:30:35.542Z,1013.02
2022-12-05T09:31:35.560Z,1013.00
2022-12-05T09:32:35.506Z,1012.95
2022-12-05T09:33:35.459Z,1013.01
2022-12-05T09:34:35.450Z,1013.01
2022-12-05T09:35:35.465Z,1013.00
2022-12-05T09:36:35.436Z,1013.01
2022-12-05T09:37:39.851Z,1012.97
2022-12-05T09:38:35.417Z,1012.97
2022-12-05T09:39:35.430Z,1012.98
2022-12-05T09:40:35.384Z,1012.96
2022-12-05T09:41:35.375Z,1012.94
2022-12-05T09:42:35.398Z,1012.91
2022-12-05T09:43:35.337Z,1012.96
2022-12-05T09:44:35.311Z,1012.97
2022-12-05T09:45:35.309Z,1013.01
2022-12-05T09:46:35.893Z,1013.00
2022-12-05T09:47:35.279Z,1012.98
2022-12-05T09:48:35.291Z,1012.95
2022-12-05T09:49:35.272Z,1012.98
2022-12-05T09:50:35.249Z,1012.93
2022-12-05T09:51:35.242Z,1012.94
2022-12-05T09:52:35.268Z,1012.99
2022-12-05T09:53:35.232Z,1012.94
2022-12-05T09:54:35.194Z,1012.99
2022-12-05T09:55:35.190Z,1013.00
2022-12-05T09:56:35.168Z,1013.04
2022-12-05T09:57:35.150Z,1012.97
2022-12-05T09:58:35.171Z,1012.96
2022-12-05T09:59:35.139Z,1013.03
2022-12-05T10:00:35.136Z,1012.94
2022-12-05T10:01:35.208Z,1012.95
2022-12-05T10:02:35.080Z,1012.92
2022-12-05T10:03:35.097Z,1012.91
2022-12-05T10:04:35.186Z,1012.98
2022-12-05T10:05:35.062Z,1012.97
2022-12-05T10:06:35.037Z,1012.93
2022-12-05T10:07:35.089Z,1012.92
2022-12-05T10:08:35.036Z,1012.96
2022-12-05T10:09:35.004Z,1012.91
2022-12-05T10:10:34.984Z,1012.91
2022-12-05T10:11:34.982Z,1012.95
2022-12-05T10:12:34.971Z,1012.88
2022-12-05T10:13:34.960Z,1012.87
2022-12-05T10:14:34.922Z,1012.92
2022-12-05T10:15:35.000Z,1012.93
2022-12-05T10:16:34.968Z,1012.92
2022-12-05T10:17:34.905Z,1012.91
2022-12-05T10:18:34.903Z,1012.85
2022-12-05T10:19:34.878Z,1012.87
2022-12-05T10:20:34.849Z,1012.87
2022-12-05T10:21:34.854Z,1012.87
2022-12-05T10:22:34.832Z,1012.86
2022-12-05T10:23:56.543Z,1012.82
2022-12-05T10:24:35.833Z,1012.82
2022-12-05T10:25:34.837Z,1012.86
2022-12-05T10:26:34.813Z,1012.85
2022-12-05T10:27:39.819Z,1012.85
2022-12-05T10:28:35.760Z,1012.85
2022-12-05T10:29:34.760Z,1012.85
2022-12-05T10:30:34.737Z,1012.81
2022-12-05T10:31:34.834Z,1012.88
2022-12-05T10:32:34.708Z,1012.84
2022-12-05T10:33:34.700Z,1012.89
2022-12-05T10:34:34.672Z,1012.87
2022-12-05T10:35:34.674Z,1012.81
2022-12-05T10:36:34.650Z,1012.85
2022-12-05T10:37:34.652Z,1012.80
2022-12-05T10:38:34.660Z,1012.78
2022-12-05T10:39:34.622Z,1012.77
2022-12-05T10:40:34.617Z,1012.75
2022-12-05T10:41:34.589Z,1012.78
2022-12-05T10:42:34.559Z,1012.72
2022-12-05T10:43:34.558Z,1012.75
2022-12-05T10:44:34.568Z,1012.74
2022-12-05T10:45:34.571Z,1012.73
2022-12-05T10:46:34.752Z,1012.74
2022-12-05T10:47:34.545Z,1012.73
2022-12-05T10:48:34.510Z,1012.65
2022-12-05T10:49:34.560Z,1012.68
2022-12-05T10:50:34.508Z,1012.63
2022-12-05T10:51:37.709Z,1012.73
2022-12-05T10:52:34.464Z,1012.73
2022-12-05T10:53:34.442Z,1012.73
2022-12-05T10:54:34.497Z,1012.76
2022-12-05T10:55:34.400Z,1012.79
2022-12-05T10:56:34.400Z,1012.77
2022-12-05T10:57:34.380Z,1012.78
2022-12-05T10:58:34.379Z,1012.74
2022-12-05T10:59:34.350Z,1012.74
2022-12-05T11:00:34.337Z,1012.76
2022-12-05T11:01:34.391Z,1012.71
2022-12-05T11:02:34.353Z,1012.74
2022-12-05T11:03:34.322Z,1012.67
2022-12-05T11:04:34.299Z,1012.69
2022-12-05T11:05:34.361Z,1012.69
2022-12-05T11:06:34.275Z,1012.76
2022-12-05T11:07:34.396Z,1012.77
2022-12-05T11:09:02.965Z,1012.73
2022-12-05T11:09:35.230Z,1012.71
2022-12-05T11:10:34.214Z,1012.67
2022-12-05T11:11:34.215Z,1012.69
2022-12-05T11:12:34.180Z,1012.70
2022-12-05T11:13:34.202Z,1012.70
2022-12-05T11:14:34.150Z,1012.67
2022-12-05T11:15:34.173Z,1012.70
2022-12-05T11:16:34.196Z,1012.67
2022-12-05T11:17:34.139Z,1012.64
2022-12-05T11:18:34.122Z,1012.68
2022-12-05T11:19:34.123Z,1012.68
2022-12-05T11:20:34.140Z,1012.66
2022-12-05T11:21:34.080Z,1012.66
2022-12-05T11:22:34.062Z,1012.69
2022-12-05T11:23:34.069Z,1012.67
2022-12-05T11:24:34.043Z,1012.68
2022-12-05T11:25:34.031Z,1012.64
2022-12-05T11:26:34.002Z,1012.70
2022-12-05T11:27:34.019Z,1012.66
2022-12-05T11:28:33.992Z,1012.61
2022-12-05T11:29:34.034Z,1012.66
2022-12-05T11:30:33.962Z,1012.66
2022-12-05T11:31:33.990Z,1012.64
2022-12-05T11:32:33.921Z,1012.68
2022-12-05T11:33:33.945Z,1012.62
2022-12-05T11:34:33.915Z,1012.62
2022-12-05T11:35:33.919Z,1012.64
2022-12-05T11:36:33.876Z,1012.60
2022-12-05T11:37:33.979Z,1012.67
2022-12-05T11:38:33.885Z,1012.69
2022-12-05T11:39:33.852Z,1012.59
2022-12-05T11:40:38.186Z,1012.61
2022-12-05T11:41:33.856Z,1012.60
2022-12-05T11:42:33.814Z,1012.57
2022-12-05T11:43:33.845Z,1012.62
2022-12-05T11:44:33.770Z,1012.61
2022-12-05T11:45:33.774Z,1012.62
2022-12-05T11:46:33.759Z,1012.64
2022-12-05T11:47:33.745Z,1012.64
2022-12-05T11:48:33.745Z,1012.65
2022-12-05T11:49:33.739Z,1012.63
2022-12-05T11:50:33.692Z,1012.63
2022-12-05T11:51:33.694Z,1012.65
2022-12-05T11:52:38.939Z,1012.67
2022-12-05T11:53:34.686Z,1012.60
2022-12-05T11:55:04.037Z,1012.64
2022-12-05T11:55:34.641Z,1012.67
2022-12-05T11:56:33.672Z,1012.66
2022-12-05T11:57:33.612Z,1012.65
2022-12-05T11:58:33.613Z,1012.66
2022-12-05T11:59:33.616Z,1012.55
2022-12-05T12:00:33.602Z,1012.60
2022-12-05T12:01:33.629Z,1012.57
2022-12-05T12:02:33.667Z,1012.57
2022-12-05T12:03:33.910Z,1012.52
2022-12-05T12:04:33.532Z,1012.54
2022-12-05T12:05:33.521Z,1012.54